Trang, Thailand

12:19 AM ICT on September 17, 2014 (GMT +0700)
Krabi | Change Station
CLOSE
Current Station
Airport
Location: Krabi,
Elevation: 82 ft
Nearby Weather Stations

Elev 82 ft 8.10 °N, 98.99 °E | Updated 19 minutes ago

Scattered Clouds
Scattered Clouds
75 °F
Feels Like 75 °F
N
0
Wind Variable Wind from North

Today
High -- | Low -- °F
--% Chance of Precip.
Yesterday
High -- | Low -- °F
Precip. -- in
6:11 AM 6:20 PM
Last Quarter, 44% visible
Pressure 29.80 in
Visibility 5.0 miles
Clouds Few 2000 ft
Scattered Clouds 30000 ft
Dew Point 73 °F
Humidity 94%
Rainfall 0.00 in
Snow Depth Not available.
UV 0 out of 12
Pollen Not available.
Air Quality Not available.
Flu Activity Not available.
METAR VTSG 161700Z 00000KT 8000 FEW020 SCT300 24/23 Q1009 A2980 INFO N RWY32

More Conditions Fewer Conditions

Pressure 29.80 in
Visibility 5.0 miles
Clouds Few 2000 ft
Scattered Clouds 30000 ft
Dew Point 73 °F
Humidity 94%
Rainfall 0.00 in
Snow Depth Not available.
UV 0 out of 12
Pollen Not available.
Air Quality Not available.
Flu Activity Not available.
METAR VTSG 161700Z 00000KT 8000 FEW020 SCT300 24/23 Q1009 A2980 INFO N RWY32

More Conditions Fewer Conditions

10-Day Weather Forecast

Almanac

Astronomy

Sep. 17, 2014 Rise Set
Actual Time 6:11 AM ICT 6:20 PM ICT
Civil Twilight 5:50 AM ICT 6:41 PM ICT
Nautical Twilight 5:26 AM ICT 7:05 PM ICT
Astronomical Twilight 5:02 AM ICT 7:29 PM ICT
Moon 12:34 AM ICT (9/17) 1:18 PM ICT (9/17)
Length of Visible Light 12h 50m
Length of Day
12h 08m
Tomorrow will be 0m 25s shorter.
Last Quarter, 44% of the Moon is Illuminated
Sep 16
Last Quarter
Sep 24
New
Oct 1
First Quarter
Oct 8
Full
Oct 15
Last Quarter

Yesterday's Extremes

Country Highs Country Lows

Community

WunderPhotos

Upload Photos

1,753,838 photos uploaded!

Nearby

Snow Depth

Not available.

Earthquake Activity

City Distance Mag. Time & Date
No recent earthquake activity has been reported nearby.
Minimum magnitude displayed is 2.5.

Coastal Water Temperatures

Place Temperature
No Stations Reporting

Nearby Weather Stations